Language: 


Des rapports , des résumés tant et plus, au choix de chacun....


Données Historiques de Météogheer
Journalier Rapport pour Février 21, 2018 Unitée:  Les deux    Impériale   Métrique
Suivant Jour »
Journalier Hebdomadaire Mensuel Annuel Sur mesure
  Max: Min: Moyenne:
Température: 43 °F /  6.1 °C 31.1 °F /  -0.5 °C 35.6 °F /  2 °C
Point de rosée: 33.8 °F /  1.0 °C 26.6 °F /  -3.0 °C 30.4 °F /  -0.9 °C
Humidité: 96% 53% 82%
Vent: 11.4mph /  18.3km/h - 6mph /  9.6km/h
Rafales: 15.4mph /  24.8km/h - -
Vent- - ENE
Pression: 30.3 in /  1024.9 hPa 30.2 in /  1021.9 hPa -
Pluie: 0.01 in /  0.3 mm    
Historical Graphs
 
 
Données tabulaires pour Février 21, 2018
Heure Température Point de rosée Pression Vent Vent Rafales Humidité Pluie Taux (Horaire) Conditions
00:00 36 °F /  2.2 °C 32 °F /  0.0 °C 30.2in /  1021.9hPa NE 2.9mph /  4.7km/h 4.9mph /  7.9km/h 86% 0in /  0.0mm
00:05 35.8 °F /  2.1 °C 32 °F /  0.0 °C 30.2in /  1021.9hPa North 4mph /  6.4km/h 4.9mph /  7.9km/h 86% 0in /  0.0mm
00:10 35.6 °F /  2.0 °C 33.8 °F /  1.0 °C 30.2in /  1021.9hPa NNE 6.5mph /  10.5km/h 6.5mph /  10.5km/h 87% 0in /  0.0mm
00:15 35.4 °F /  1.9 °C 32 °F /  0.0 °C 30.2in /  1021.9hPa NE 6mph /  9.7km/h 6.5mph /  10.5km/h 88% 0in /  0.0mm
00:20 35.4 °F /  1.9 °C 32 °F /  0.0 °C 30.2in /  1021.9hPa NE 5.6mph /  9.0km/h 6.3mph /  10.1km/h 88% 0in /  0.0mm
00:25 35.1 °F /  1.7 °C 32 °F /  0.0 °C 30.2in /  1021.9hPa NE 4.3mph /  6.9km/h 6.5mph /  10.5km/h 88% 0in /  0.0mm
00:30 34.9 °F /  1.6 °C 32 °F /  0.0 °C 30.2in /  1021.9hPa NE 4.9mph /  7.9km/h 6.5mph /  10.5km/h 89% 0in /  0.0mm
00:35 34.9 °F /  1.6 °C 32 °F /  0.0 °C 30.2in /  1021.9hPa NNE 6.5mph /  10.5km/h 6.5mph /  10.5km/h 89% 0in /  0.0mm
00:40 34.7 °F /  1.5 °C 32 °F /  0.0 °C 30.2in /  1021.9hPa NE 6.3mph /  10.1km/h 6.5mph /  10.5km/h 90% 0in /  0.0mm
00:46 34.7 °F /  1.5 °C 32 °F /  0.0 °C 30.2in /  1021.9hPa North 4.3mph /  6.9km/h 6.5mph /  10.5km/h 90% 0in /  0.0mm
00:51 34.5 °F /  1.4 °C 32 °F /  0.0 °C 30.2in /  1021.9hPa NNE 2.2mph /  3.5km/h 6.5mph /  10.5km/h 91% 0in /  0.0mm
00:56 34.5 °F /  1.4 °C 32 °F /  0.0 °C 30.2in /  1021.9hPa North 5.4mph /  8.7km/h 6.5mph /  10.5km/h 91% 0in /  0.0mm
01:01 34.3 °F /  1.3 °C 32 °F /  0.0 °C 30.2in /  1021.9hPa NNE 3.4mph /  5.5km/h 5.6mph /  9.0km/h 91% 0in /  0.0mm
01:06 34.3 °F /  1.3 °C 32 °F /  0.0 °C 30.2in /  1021.9hPa NNE 4.3mph /  6.9km/h 6.3mph /  10.1km/h 91% 0in /  0.0mm
01:11 34.3 °F /  1.3 °C 32 °F /  0.0 °C 30.2in /  1021.9hPa NE 4mph /  6.4km/h 6.3mph /  10.1km/h 92% 0in /  0.0mm
01:16 34.2 °F /  1.2 °C 32 °F /  0.0 °C 30.2in /  1021.9hPa Calm   7.4mph /  11.9km/h 92% 0in /  0.0mm
01:21 34.2 °F /  1.2 °C 32 °F /  0.0 °C 30.2in /  1021.9hPa NE 5.4mph /  8.7km/h 7.4mph /  11.9km/h 92% 0in /  0.0mm
01:26 34.2 °F /  1.2 °C 33.8 °F /  1.0 °C 30.2in /  1021.9hPa North 4.9mph /  7.9km/h 6mph /  9.7km/h 93% 0in /  0.0mm
01:31 34.2 °F /  1.2 °C 33.8 °F /  1.0 °C 30.2in /  1022.9hPa NNE 6.3mph /  10.1km/h 6.3mph /  10.1km/h 93% 0in /  0.0mm
01:36 34.2 °F /  1.2 °C 33.8 °F /  1.0 °C 30.2in /  1022.9hPa NE 7.4mph /  11.9km/h 7.4mph /  11.9km/h 93% 0in /  0.0mm
01:41 34 °F /  1.1 °C 32 °F /  0.0 °C 30.2in /  1022.9hPa NNE 4.9mph /  7.9km/h 7.4mph /  11.9km/h 93% 0in /  0.0mm
01:46 33.8 °F /  1.0 °C 32 °F /  0.0 °C 30.2in /  1021.9hPa NE 5.4mph /  8.7km/h 7.4mph /  11.9km/h 93% 0in /  0.0mm
01:51 33.8 °F /  1.0 °C 32 °F /  0.0 °C 30.2in /  1021.9hPa NNE 3.8mph /  6.1km/h 5.6mph /  9.0km/h 93% 0in /  0.0mm
01:56 33.6 °F /  0.9 °C 32 °F /  0.0 °C 30.2in /  1021.9hPa NE 6mph /  9.7km/h 6mph /  9.7km/h 93% 0in /  0.0mm
02:01 33.6 °F /  0.9 °C 32 °F /  0.0 °C 30.2in /  1021.9hPa NE 4.3mph /  6.9km/h 6mph /  9.7km/h 93% 0in /  0.0mm
02:06 33.4 °F /  0.8 °C 32 °F /  0.0 °C 30.2in /  1021.9hPa NE 6mph /  9.7km/h 6.5mph /  10.5km/h 93% 0in /  0.0mm
02:11 33.4 °F /  0.8 °C 32 °F /  0.0 °C 30.2in /  1021.9hPa NNE 4.3mph /  6.9km/h 6.5mph /  10.5km/h 93% 0in /  0.0mm
02:16 33.4 °F /  0.8 °C 32 °F /  0.0 °C 30.2in /  1022.9hPa North 6.5mph /  10.5km/h 6.5mph /  10.5km/h 93% 0in /  0.0mm
02:21 33.3 °F /  0.7 °C 32 °F /  0.0 °C 30.2in /  1022.9hPa Calm   6.5mph /  10.5km/h 93% 0in /  0.0mm
02:26 33.3 °F /  0.7 °C 32 °F /  0.0 °C 30.2in /  1022.9hPa Calm   6.5mph /  10.5km/h 93% 0in /  0.0mm
02:31 33.1 °F /  0.6 °C 32 °F /  0.0 °C 30.2in /  1022.9hPa NE 5.6mph /  9.0km/h 5.6mph /  9.0km/h 93% 0in /  0.0mm
02:36 33.1 °F /  0.6 °C 32 °F /  0.0 °C 30.2in /  1022.9hPa North 3.4mph /  5.5km/h 5.6mph /  9.0km/h 94% 0in /  0.0mm
02:41 33.1 °F /  0.6 °C 32 °F /  0.0 °C 30.2in /  1022.9hPa NNE 6.3mph /  10.1km/h 6.3mph /  10.1km/h 94% 0in /  0.0mm
02:46 33.1 °F /  0.6 °C 32 °F /  0.0 °C 30.2in /  1022.9hPa North 3.8mph /  6.1km/h 6.3mph /  10.1km/h 94% 0in /  0.0mm
02:51 33.1 °F /  0.6 °C 32 °F /  0.0 °C 30.2in /  1022.9hPa NE 3.6mph /  5.8km/h 6.3mph /  10.1km/h 94% 0in /  0.0mm
02:56 33.1 °F /  0.6 °C 32 °F /  0.0 °C 30.2in /  1022.9hPa NNE 3.4mph /  5.5km/h 7.4mph /  11.9km/h 94% 0in /  0.0mm
03:02 33.1 °F /  0.6 °C 32 °F /  0.0 °C 30.2in /  1022.9hPa NNE 4.9mph /  7.9km/h 7.4mph /  11.9km/h 95% 0in /  0.0mm
03:07 33.1 °F /  0.6 °C 32 °F /  0.0 °C 30.2in /  1022.9hPa NE 3.1mph /  5.0km/h 5.8mph /  9.3km/h 95% 0in /  0.0mm
03:12 32.9 °F /  0.5 °C 32 °F /  0.0 °C 30.2in /  1022.9hPa NNE 5.4mph /  8.7km/h 5.8mph /  9.3km/h 95% 0in /  0.0mm
03:17 32.9 °F /  0.5 °C 32 °F /  0.0 °C 30.2in /  1022.9hPa NNE 3.6mph /  5.8km/h 6.5mph /  10.5km/h 94% 0in /  0.0mm
03:22 32.7 °F /  0.4 °C 32 °F /  0.0 °C 30.2in /  1022.9hPa NE 3.1mph /  5.0km/h 6.5mph /  10.5km/h 94% 0in /  0.0mm
03:27 32.7 °F /  0.4 °C 32 °F /  0.0 °C 30.2in /  1022.9hPa NE 4mph /  6.4km/h 6.3mph /  10.1km/h 94% 0in /  0.0mm
03:32 32.7 °F /  0.4 °C 32 °F /  0.0 °C 30.2in /  1022.9hPa NNE 5.4mph /  8.7km/h 5.6mph /  9.0km/h 94% 0in /  0.0mm
03:37 32.5 °F /  0.3 °C 32 °F /  0.0 °C 30.2in /  1022.9hPa NNE 4.7mph /  7.6km/h 6.7mph /  10.8km/h 95% 0in /  0.0mm
03:42 32.5 °F /  0.3 °C 32 °F /  0.0 °C 30.2in /  1022.9hPa NE 4mph /  6.4km/h 7.8mph /  12.6km/h 95% 0in /  0.0mm
03:47 32.5 °F /  0.3 °C 32 °F /  0.0 °C 30.2in /  1022.9hPa NNE 4.9mph /  7.9km/h 7.8mph /  12.6km/h 95% 0in /  0.0mm
03:52 32.5 °F /  0.3 °C 32 °F /  0.0 °C 30.2in /  1022.9hPa NNE 2mph /  3.2km/h 5.8mph /  9.3km/h 95% 0in /  0.0mm
03:57 32.5 °F /  0.3 °C 32 °F /  0.0 °C 30.2in /  1022.9hPa NE 4mph /  6.4km/h 5.4mph /  8.7km/h 95% 0in /  0.0mm
04:02 32.4 °F /  0.2 °C 32 °F /  0.0 °C 30.2in /  1022.9hPa NE 3.4mph /  5.5km/h 5.6mph /  9.0km/h 95% 0in /  0.0mm
04:07 32.4 °F /  0.2 °C 32 °F /  0.0 °C 30.2in /  1022.9hPa NNE 5.6mph /  9.0km/h 6.5mph /  10.5km/h 95% 0in /  0.0mm
04:12 32.4 °F /  0.2 °C 32 °F /  0.0 °C 30.2in /  1022.9hPa NE 4mph /  6.4km/h 6.5mph /  10.5km/h 95% 0in /  0.0mm
04:17 32.4 °F /  0.2 °C 32 °F /  0.0 °C 30.2in /  1022.9hPa NNW 3.6mph /  5.8km/h 5.6mph /  9.0km/h 95% 0in /  0.0mm
04:22 32.4 °F /  0.2 °C 32 °F /  0.0 °C 30.2in /  1022.9hPa NNE 4.3mph /  6.9km/h 6mph /  9.7km/h 95% 0in /  0.0mm
04:27 32.2 °F /  0.1 °C 32 °F /  0.0 °C 30.2in /  1022.9hPa NE 4mph /  6.4km/h 6mph /  9.7km/h 95% 0in /  0.0mm
04:32 32.2 °F /  0.1 °C 32 °F /  0.0 °C 30.2in /  1022.9hPa Calm   4.3mph /  6.9km/h 95% 0in /  0.0mm
04:37 32 °F /  0.0 °C 30.2 °F /  -1.0 °C 30.2in /  1022.9hPa NE 2.5mph /  4.0km/h 4.3mph /  6.9km/h 95% 0in /  0.0mm
04:42 32 °F /  0.0 °C 30.2 °F /  -1.0 °C 30.2in /  1022.9hPa North 4.7mph /  7.6km/h 5.8mph /  9.3km/h 95% 0in /  0.0mm
04:47 32 °F /  0.0 °C 30.2 °F /  -1.0 °C 30.2in /  1022.9hPa NNE 4.3mph /  6.9km/h 5.8mph /  9.3km/h 95% 0in /  0.0mm
04:52 32.2 °F /  0.1 °C 32 °F /  0.0 °C 30.2in /  1022.9hPa NNW 6mph /  9.7km/h 6.3mph /  10.1km/h 95% 0in /  0.0mm
04:57 32.2 °F /  0.1 °C 32 °F /  0.0 °C 30.2in /  1022.9hPa ENE 2.5mph /  4.0km/h 6.7mph /  10.8km/h 95% 0in /  0.0mm
05:02 32.2 °F /  0.1 °C 32 °F /  0.0 °C 30.2in /  1022.9hPa NE 2.2mph /  3.5km/h 6.7mph /  10.8km/h 95% 0in /  0.0mm
05:07 32.2 °F /  0.1 °C 32 °F /  0.0 °C 30.2in /  1022.9hPa NE 5.8mph /  9.3km/h 6.5mph /  10.5km/h 95% 0in /  0.0mm
05:12 32.2 °F /  0.1 °C 32 °F /  0.0 °C 30.2in /  1022.9hPa North 7.2mph /  11.6km/h 7.2mph /  11.6km/h 95% 0in /  0.0mm
05:17 32.2 °F /  0.1 °C 32 °F /  0.0 °C 30.2in /  1022.9hPa NNE 5.6mph /  9.0km/h 7.6mph /  12.2km/h 95% 0in /  0.0mm
05:23 32.2 °F /  0.1 °C 32 °F /  0.0 °C 30.2in /  1022.9hPa ENE 5.6mph /  9.0km/h 7.8mph /  12.6km/h 96% 0in /  0.0mm
05:28 32.2 °F /  0.1 °C 32 °F /  0.0 °C 30.2in /  1022.9hPa NNE 6mph /  9.7km/h 7.8mph /  12.6km/h 96% 0in /  0.0mm
05:33 32.2 °F /  0.1 °C 32 °F /  0.0 °C 30.2in /  1022.9hPa ENE 3.4mph /  5.5km/h 7.4mph /  11.9km/h 96% 0in /  0.0mm
05:38 32.2 °F /  0.1 °C 32 °F /  0.0 °C 30.2in /  1022.9hPa NNE 6mph /  9.7km/h 7.4mph /  11.9km/h 96% 0in /  0.0mm
05:43 32.2 °F /  0.1 °C 32 °F /  0.0 °C 30.2in /  1022.9hPa North 5.8mph /  9.3km/h 7.6mph /  12.2km/h 96% 0in /  0.0mm
05:48 32 °F /  0.0 °C 30.2 °F /  -1.0 °C 30.2in /  1021.9hPa NE 7.4mph /  11.9km/h 7.8mph /  12.6km/h 95% 0in /  0.0mm
05:53 32 °F /  0.0 °C 30.2 °F /  -1.0 °C 30.2in /  1021.9hPa NNE 6mph /  9.7km/h 8.1mph /  13.0km/h 95% 0in /  0.0mm
05:58 31.8 °F /  -0.1 °C 30.2 °F /  -1.0 °C 30.2in /  1021.9hPa NE 4.9mph /  7.9km/h 8.1mph /  13.0km/h 95% 0in /  0.0mm
06:03 31.8 °F /  -0.1 °C 30.2 °F /  -1.0 °C 30.2in /  1021.9hPa NNE 5.6mph /  9.0km/h 7.4mph /  11.9km/h 95% 0in /  0.0mm
06:08 31.8 °F /  -0.1 °C 30.2 °F /  -1.0 °C 30.2in /  1021.9hPa NE 4.3mph /  6.9km/h 6.5mph /  10.5km/h 95% 0in /  0.0mm
06:13 31.6 °F /  -0.2 °C 30.2 °F /  -1.0 °C 30.2in /  1021.9hPa Calm   5.4mph /  8.7km/h 95% 0in /  0.0mm
06:18 31.6 °F /  -0.2 °C 30.2 °F /  -1.0 °C 30.2in /  1022.9hPa NNE 4.3mph /  6.9km/h 4.3mph /  6.9km/h 95% 0in /  0.0mm
06:23 31.6 °F /  -0.2 °C 30.2 °F /  -1.0 °C 30.2in /  1022.9hPa NNE 2mph /  3.2km/h 4.3mph /  6.9km/h 95% 0in /  0.0mm
06:28 31.6 °F /  -0.2 °C 30.2 °F /  -1.0 °C 30.2in /  1022.9hPa Calm   4.9mph /  7.9km/h 95% 0in /  0.0mm
06:33 31.6 °F /  -0.2 °C 30.2 °F /  -1.0 °C 30.2in /  1022.9hPa NE 4mph /  6.4km/h 6mph /  9.7km/h 95% 0in /  0.0mm
06:38 31.8 °F /  -0.1 °C 30.2 °F /  -1.0 °C 30.2in /  1022.9hPa NNE 5.8mph /  9.3km/h 6.5mph /  10.5km/h 95% 0in /  0.0mm
06:43 31.8 °F /  -0.1 °C 30.2 °F /  -1.0 °C 30.2in /  1022.9hPa NE 7.6mph /  12.2km/h 7.6mph /  12.2km/h 95% 0in /  0.0mm
06:48 31.8 °F /  -0.1 °C 30.2 °F /  -1.0 °C 30.2in /  1022.9hPa NE 5.6mph /  9.0km/h 7.6mph /  12.2km/h 95% 0in /  0.0mm
06:53 32 °F /  0.0 °C 30.2 °F /  -1.0 °C 30.2in /  1022.9hPa NE 6.3mph /  10.1km/h 7.6mph /  12.2km/h 95% 0in /  0.0mm
06:58 31.8 °F /  -0.1 °C 30.2 °F /  -1.0 °C 30.2in /  1022.9hPa NE 5.4mph /  8.7km/h 7.6mph /  12.2km/h 95% 0in /  0.0mm
07:03 31.6 °F /  -0.2 °C 30.2 °F /  -1.0 °C 30.2in /  1022.9hPa Calm   6.5mph /  10.5km/h 95% 0in /  0.0mm
07:09 31.5 °F /  -0.3 °C 28.4 °F /  -2.0 °C 30.2in /  1022.9hPa NE 6mph /  9.7km/h 6mph /  9.7km/h 94% 0in /  0.0mm
07:14 31.5 °F /  -0.3 °C 28.4 °F /  -2.0 °C 30.2in /  1022.9hPa NE 7.2mph /  11.6km/h 7.2mph /  11.6km/h 94% 0in /  0.0mm
07:19 31.5 °F /  -0.3 °C 28.4 °F /  -2.0 °C 30.2in /  1022.9hPa NNE 4.3mph /  6.9km/h 7.2mph /  11.6km/h 94% 0in /  0.0mm
07:24 31.5 °F /  -0.3 °C 28.4 °F /  -2.0 °C 30.2in /  1022.9hPa NE 4.3mph /  6.9km/h 7.2mph /  11.6km/h 94% 0in /  0.0mm
07:29 31.3 °F /  -0.4 °C 28.4 °F /  -2.0 °C 30.2in /  1022.9hPa NNE 5.8mph /  9.3km/h 6mph /  9.7km/h 94% 0in /  0.0mm
07:34 31.3 °F /  -0.4 °C 28.4 °F /  -2.0 °C 30.2in /  1022.9hPa Calm   5.8mph /  9.3km/h 94% 0in /  0.0mm
07:39 31.3 °F /  -0.4 °C 28.4 °F /  -2.0 °C 30.2in /  1022.9hPa NE 5.4mph /  8.7km/h 5.8mph /  9.3km/h 94% 0in /  0.0mm
07:44 31.1 °F /  -0.5 °C 28.4 °F /  -2.0 °C 30.2in /  1022.9hPa Calm   5.6mph /  9.0km/h 94% 0in /  0.0mm
07:49 31.1 °F /  -0.5 °C 28.4 °F /  -2.0 °C 30.2in /  1022.9hPa NE 5.4mph /  8.7km/h 6mph /  9.7km/h 94% 0in /  0.0mm
07:54 31.3 °F /  -0.4 °C 28.4 °F /  -2.0 °C 30.2in /  1022.9hPa NNE 6mph /  9.7km/h 6.3mph /  10.1km/h 94% 0in /  0.0mm
07:59 31.3 °F /  -0.4 °C 28.4 °F /  -2.0 °C 30.2in /  1022.9hPa NE 5.8mph /  9.3km/h 6.9mph /  11.1km/h 94% 0in /  0.0mm
08:04 31.5 °F /  -0.3 °C 28.4 °F /  -2.0 °C 30.2in /  1022.9hPa NE 6.5mph /  10.5km/h 6.9mph /  11.1km/h 95% 0in /  0.0mm
08:09 31.5 °F /  -0.3 °C 28.4 °F /  -2.0 °C 30.2in /  1022.9hPa ENE 4.7mph /  7.6km/h 7.8mph /  12.6km/h 95% 0in /  0.0mm
08:14 31.5 °F /  -0.3 °C 28.4 °F /  -2.0 °C 30.2in /  1022.9hPa NE 3.6mph /  5.8km/h 7.8mph /  12.6km/h 94% 0in /  0.0mm
08:19 31.3 °F /  -0.4 °C 28.4 °F /  -2.0 °C 30.2in /  1022.9hPa NE 4.5mph /  7.2km/h 6.5mph /  10.5km/h 94% 0in /  0.0mm
08:24 31.3 °F /  -0.4 °C 28.4 °F /  -2.0 °C 30.2in /  1022.9hPa NE 3.8mph /  6.1km/h 6.5mph /  10.5km/h 94% 0in /  0.0mm
08:29 31.3 °F /  -0.4 °C 28.4 °F /  -2.0 °C 30.2in /  1023.9hPa NNE 3.8mph /  6.1km/h 6.5mph /  10.5km/h 94% 0in /  0.0mm
08:34 31.5 °F /  -0.3 °C 28.4 °F /  -2.0 °C 30.2in /  1023.9hPa NNE 4.9mph /  7.9km/h 7.6mph /  12.2km/h 94% 0in /  0.0mm
08:39 31.5 °F /  -0.3 °C 28.4 °F /  -2.0 °C 30.2in /  1023.9hPa NE 4mph /  6.4km/h 7.6mph /  12.2km/h 94% 0in /  0.0mm
08:44 31.6 °F /  -0.2 °C 28.4 °F /  -2.0 °C 30.2in /  1023.9hPa NNE 7.8mph /  12.6km/h 7.8mph /  12.6km/h 94% 0in /  0.0mm
08:49 31.8 °F /  -0.1 °C 30.2 °F /  -1.0 °C 30.2in /  1023.9hPa NNE 5.6mph /  9.0km/h 7.8mph /  12.6km/h 95% 0in /  0.0mm
08:54 32.2 °F /  0.1 °C 32 °F /  0.0 °C 30.2in /  1023.9hPa NE 4.3mph /  6.9km/h 7.6mph /  12.2km/h 95% 0in /  0.0mm
08:59 32.2 °F /  0.1 °C 32 °F /  0.0 °C 30.2in /  1023.9hPa NNE 5.8mph /  9.3km/h 7.6mph /  12.2km/h 95% 0in /  0.0mm
09:04 32.4 °F /  0.2 °C 32 °F /  0.0 °C 30.2in /  1023.9hPa NE 3.8mph /  6.1km/h 7.6mph /  12.2km/h 95% 0in /  0.0mm
09:09 32.5 °F /  0.3 °C 32 °F /  0.0 °C 30.2in /  1023.9hPa NE 4.9mph /  7.9km/h 7.2mph /  11.6km/h 95% 0in /  0.0mm
09:14 32.7 °F /  0.4 °C 32 °F /  0.0 °C 30.3in /  1024.9hPa NE 6.5mph /  10.5km/h 7.4mph /  11.9km/h 95% 0in /  0.0mm
09:20 32.9 °F /  0.5 °C 32 °F /  0.0 °C 30.3in /  1024.9hPa NE 6.3mph /  10.1km/h 7.4mph /  11.9km/h 94% 0in /  0.0mm
09:25 33.1 °F /  0.6 °C 32 °F /  0.0 °C 30.3in /  1024.9hPa NNE 5.8mph /  9.3km/h 7.2mph /  11.6km/h 94% 0in /  0.0mm
09:30 33.3 °F /  0.7 °C 32 °F /  0.0 °C 30.3in /  1024.9hPa NNW 7.4mph /  11.9km/h 7.8mph /  12.6km/h 94% 0in /  0.0mm
09:35 33.6 °F /  0.9 °C 32 °F /  0.0 °C 30.3in /  1024.9hPa NNE 5.8mph /  9.3km/h 8.1mph /  13.0km/h 94% 0in /  0.0mm
09:40 33.8 °F /  1.0 °C 32 °F /  0.0 °C 30.3in /  1024.9hPa North 7.4mph /  11.9km/h 8.1mph /  13.0km/h 92% 0in /  0.0mm
09:45 34 °F /  1.1 °C 32 °F /  0.0 °C 30.3in /  1024.9hPa NE 8.1mph /  13.0km/h 8.7mph /  14.0km/h 92% 0in /  0.0mm
09:50 34.2 °F /  1.2 °C 32 °F /  0.0 °C 30.3in /  1024.9hPa NE 8.7mph /  14.0km/h 8.7mph /  14.0km/h 91% 0in /  0.0mm
09:55 34.3 °F /  1.3 °C 32 °F /  0.0 °C 30.3in /  1024.9hPa NNE 6mph /  9.7km/h 8.7mph /  14.0km/h 90% 0in /  0.0mm
10:00 34.5 °F /  1.4 °C 32 °F /  0.0 °C 30.3in /  1024.9hPa NE 8.1mph /  13.0km/h 8.7mph /  14.0km/h 89% 0in /  0.0mm
10:05 34.7 °F /  1.5 °C 32 °F /  0.0 °C 30.3in /  1024.9hPa NE 8.1mph /  13.0km/h 8.7mph /  14.0km/h 89% 0in /  0.0mm
10:10 34.9 °F /  1.6 °C 32 °F /  0.0 °C 30.3in /  1024.9hPa NE 7.6mph /  12.2km/h 8.1mph /  13.0km/h 89% 0in /  0.0mm
10:15 35.2 °F /  1.8 °C 32 °F /  0.0 °C 30.3in /  1024.9hPa NNE 6mph /  9.7km/h 8.1mph /  13.0km/h 88% 0in /  0.0mm
10:21 35.4 °F /  1.9 °C 32 °F /  0.0 °C 30.3in /  1024.9hPa NE 6.9mph /  11.1km/h 8.5mph /  13.7km/h 88% 0in /  0.0mm
10:26 35.6 °F /  2.0 °C 32 °F /  0.0 °C 30.3in /  1024.9hPa NE 6mph /  9.7km/h 8.5mph /  13.7km/h 86% 0in /  0.0mm
10:31 35.8 °F /  2.1 °C 32 °F /  0.0 °C 30.2in /  1023.9hPa NE 8.1mph /  13.0km/h 9.2mph /  14.8km/h 85% 0in /  0.0mm
10:36 36 °F /  2.2 °C 32 °F /  0.0 °C 30.2in /  1023.9hPa NE 5.6mph /  9.0km/h 9.2mph /  14.8km/h 85% 0in /  0.0mm
10:41 36.1 °F /  2.3 °C 32 °F /  0.0 °C 30.2in /  1023.9hPa NNE 6.5mph /  10.5km/h 8.7mph /  14.0km/h 84% 0in /  0.0mm
10:46 36.5 °F /  2.5 °C 32 °F /  0.0 °C 30.3in /  1024.9hPa NE 6.5mph /  10.5km/h 8.7mph /  14.0km/h 83% 0in /  0.0mm
10:51 36.9 °F /  2.7 °C 32 °F /  0.0 °C 30.3in /  1024.9hPa NE 6mph /  9.7km/h 8.7mph /  14.0km/h 83% 0in /  0.0mm
10:56 37 °F /  2.8 °C 33.8 °F /  1.0 °C 30.3in /  1024.9hPa ENE 5.4mph /  8.7km/h 8.5mph /  13.7km/h 82% 0in /  0.0mm
11:01 37.2 °F /  2.9 °C 32 °F /  0.0 °C 30.3in /  1024.9hPa ENE 6.3mph /  10.1km/h 8.5mph /  13.7km/h 80% 0in /  0.0mm
11:06 37.4 °F /  3.0 °C 32 °F /  0.0 °C 30.3in /  1024.9hPa NE 6.3mph /  10.1km/h 8.5mph /  13.7km/h 78% 0in /  0.0mm
11:11 37.8 °F /  3.2 °C 32 °F /  0.0 °C 30.3in /  1024.9hPa ENE 7.6mph /  12.2km/h 10.7mph /  17.2km/h 77% 0in /  0.0mm
11:16 37.9 °F /  3.3 °C 32 °F /  0.0 °C 30.2in /  1023.9hPa East 8.7mph /  14.0km/h 10.7mph /  17.2km/h 76% 0in /  0.0mm
11:21 38.3 °F /  3.5 °C 32 °F /  0.0 °C 30.2in /  1023.9hPa NE 8.1mph /  13.0km/h 8.9mph /  14.3km/h 76% 0in /  0.0mm
11:26 38.5 °F /  3.6 °C 32 °F /  0.0 °C 30.2in /  1023.9hPa NE 7.4mph /  11.9km/h 8.7mph /  14.0km/h 74% 0in /  0.0mm
11:31 38.8 °F /  3.8 °C 32 °F /  0.0 °C 30.2in /  1023.9hPa ENE 7.4mph /  11.9km/h 8.5mph /  13.7km/h 74% 0in /  0.0mm
11:36 38.8 °F /  3.8 °C 30.2 °F /  -1.0 °C 30.2in /  1023.9hPa ENE 7.2mph /  11.6km/h 11.4mph /  18.3km/h 72% 0in /  0.0mm
11:41 39 °F /  3.9 °C 30.2 °F /  -1.0 °C 30.2in /  1023.9hPa ENE 6.3mph /  10.1km/h 11.4mph /  18.3km/h 70% 0in /  0.0mm
11:46 39.4 °F /  4.1 °C 30.2 °F /  -1.0 °C 30.3in /  1024.9hPa ENE 7.4mph /  11.9km/h 10.5mph /  16.9km/h 70% 0in /  0.0mm
11:51 39.4 °F /  4.1 °C 30.2 °F /  -1.0 °C 30.3in /  1024.9hPa NE 6.5mph /  10.5km/h 10.5mph /  16.9km/h 69% 0in /  0.0mm
11:56 39.6 °F /  4.2 °C 30.2 °F /  -1.0 °C 30.3in /  1024.9hPa ENE 7.6mph /  12.2km/h 10.5mph /  16.9km/h 69% 0in /  0.0mm
12:02 39.7 °F /  4.3 °C 30.2 °F /  -1.0 °C 30.3in /  1024.9hPa NE 9.8mph /  15.8km/h 10.3mph /  16.6km/h 67% 0in /  0.0mm
12:07 39.9 °F /  4.4 °C 30.2 °F /  -1.0 °C 30.3in /  1024.9hPa ENE 7.6mph /  12.2km/h 10.3mph /  16.6km/h 67% 0in /  0.0mm
12:12 40.1 °F /  4.5 °C 30.2 °F /  -1.0 °C 30.3in /  1024.9hPa ENE 6.3mph /  10.1km/h 10.1mph /  16.3km/h 66% 0.01in /  0.3mm
12:17 40.3 °F /  4.6 °C 30.2 °F /  -1.0 °C 30.3in /  1024.9hPa East 5.8mph /  9.3km/h 10.1mph /  16.3km/h 66% 0.01in /  0.3mm
12:22 40.5 °F /  4.7 °C 30.2 °F /  -1.0 °C 30.3in /  1024.9hPa NE 7.8mph /  12.6km/h 10.1mph /  16.3km/h 65% 0.01in /  0.3mm
12:27 40.5 °F /  4.7 °C 30.2 °F /  -1.0 °C 30.3in /  1024.9hPa ENE 7.6mph /  12.2km/h 10.1mph /  16.3km/h 65% 0.01in /  0.3mm
12:32 40.6 °F /  4.8 °C 30.2 °F /  -1.0 °C 30.3in /  1024.9hPa ENE 6.5mph /  10.5km/h 10.1mph /  16.3km/h 65% 0.01in /  0.3mm
12:37 40.8 °F /  4.9 °C 30.2 °F /  -1.0 °C 30.3in /  1024.9hPa ENE 3.4mph /  5.5km/h 10.1mph /  16.3km/h 66% 0.01in /  0.3mm
12:42 41 °F /  5.0 °C 30.2 °F /  -1.0 °C 30.3in /  1024.9hPa NE 10.3mph /  16.6km/h 11mph /  17.7km/h 64% 0.01in /  0.3mm
12:47 40.8 °F /  4.9 °C 28.4 °F /  -2.0 °C 30.3in /  1024.9hPa NE 7.8mph /  12.6km/h 11mph /  17.7km/h 62% 0.01in /  0.3mm
12:52 41 °F /  5.0 °C 30.2 °F /  -1.0 °C 30.3in /  1024.9hPa ENE 8.5mph /  13.7km/h 10.3mph /  16.6km/h 63% 0.01in /  0.3mm
12:57 41 °F /  5.0 °C 30.2 °F /  -1.0 °C 30.3in /  1024.9hPa ENE 8.1mph /  13.0km/h 9.6mph /  15.4km/h 63% 0.01in /  0.3mm
13:02 41 °F /  5.0 °C 28.4 °F /  -2.0 °C 30.3in /  1024.9hPa NE 8.5mph /  13.7km/h 10.3mph /  16.6km/h 61% 0.01in /  0.3mm
13:07 41.2 °F /  5.1 °C 30.2 °F /  -1.0 °C 30.3in /  1024.9hPa NNE 6.3mph /  10.1km/h 10.3mph /  16.6km/h 63% 0.01in /  0.3mm
13:12 41.4 °F /  5.2 °C 30.2 °F /  -1.0 °C 30.3in /  1024.9hPa ENE 7.4mph /  11.9km/h 8.5mph /  13.7km/h 63% 0in /  0.0mm
13:17 41.7 °F /  5.4 °C 30.2 °F /  -1.0 °C 30.3in /  1024.9hPa ENE 8.1mph /  13.0km/h 9.2mph /  14.8km/h 64% 0in /  0.0mm
13:22 42.1 °F /  5.6 °C 32 °F /  0.0 °C 30.3in /  1024.9hPa NNE 6.5mph /  10.5km/h 9.2mph /  14.8km/h 65% 0in /  0.0mm
13:27 42.1 °F /  5.6 °C 30.2 °F /  -1.0 °C 30.3in /  1024.9hPa NE 8.5mph /  13.7km/h 8.7mph /  14.0km/h 63% 0in /  0.0mm
13:32 42.1 °F /  5.6 °C 30.2 °F /  -1.0 °C 30.3in /  1024.9hPa NNE 10.1mph /  16.3km/h 10.1mph /  16.3km/h 61% 0in /  0.0mm
13:37 41.9 °F /  5.5 °C 30.2 °F /  -1.0 °C 30.3in /  1024.9hPa NE 10.5mph /  16.9km/h 10.7mph /  17.2km/h 60% 0in /  0.0mm
13:42 42.1 °F /  5.6 °C 30.2 °F /  -1.0 °C 30.3in /  1024.9hPa NNE 8.5mph /  13.7km/h 10.7mph /  17.2km/h 61% 0in /  0.0mm
13:47 41.9 °F /  5.5 °C 30.2 °F /  -1.0 °C 30.3in /  1024.9hPa ENE 7.6mph /  12.2km/h 10.5mph /  16.9km/h 60% 0in /  0.0mm
13:52 42.1 °F /  5.6 °C 30.2 °F /  -1.0 °C 30.3in /  1024.9hPa NE 7.4mph /  11.9km/h 10.5mph /  16.9km/h 60% 0in /  0.0mm
13:57 42.1 °F /  5.6 °C 30.2 °F /  -1.0 °C 30.3in /  1024.9hPa NNE 7.8mph /  12.6km/h 10.5mph /  16.9km/h 60% 0in /  0.0mm
14:02 42.4 °F /  5.8 °C 30.2 °F /  -1.0 °C 30.2in /  1023.9hPa NE 8.5mph /  13.7km/h 10.7mph /  17.2km/h 60% 0in /  0.0mm
14:07 42.4 °F /  5.8 °C 30.2 °F /  -1.0 °C 30.2in /  1023.9hPa ENE 6.5mph /  10.5km/h 10.7mph /  17.2km/h 61% 0in /  0.0mm
14:13 42.6 °F /  5.9 °C 30.2 °F /  -1.0 °C 30.2in /  1023.9hPa NE 9.2mph /  14.8km/h 12.3mph /  19.8km/h 60% 0in /  0.0mm
14:18 42.4 °F /  5.8 °C 30.2 °F /  -1.0 °C 30.2in /  1023.9hPa NE 9.8mph /  15.8km/h 13mph /  20.9km/h 60% 0in /  0.0mm
14:23 42.3 °F /  5.7 °C 30.2 °F /  -1.0 °C 30.2in /  1023.9hPa NE 8.7mph /  14.0km/h 13mph /  20.9km/h 59% 0in /  0.0mm
14:28 42.4 °F /  5.8 °C 30.2 °F /  -1.0 °C 30.2in /  1023.9hPa NE 8.5mph /  13.7km/h 12.8mph /  20.6km/h 59% 0in /  0.0mm
14:33 42.4 °F /  5.8 °C 30.2 °F /  -1.0 °C 30.2in /  1023.9hPa NNE 10.3mph /  16.6km/h 12.8mph /  20.6km/h 58% 0in /  0.0mm
14:38 42.4 °F /  5.8 °C 30.2 °F /  -1.0 °C 30.2in /  1023.9hPa NE 6.3mph /  10.1km/h 12.3mph /  19.8km/h 59% 0in /  0.0mm
14:43 42.4 °F /  5.8 °C 28.4 °F /  -2.0 °C 30.2in /  1023.9hPa NNW 8.7mph /  14.0km/h 12.5mph /  20.1km/h 56% 0in /  0.0mm
14:48 42.4 °F /  5.8 °C 28.4 °F /  -2.0 °C 30.2in /  1022.9hPa NNE 10.3mph /  16.6km/h 13.4mph /  21.6km/h 57% 0in /  0.0mm
14:53 42.4 °F /  5.8 °C 28.4 °F /  -2.0 °C 30.2in /  1022.9hPa NE 8.5mph /  13.7km/h 15.4mph /  24.8km/h 56% 0in /  0.0mm
14:58 42.4 °F /  5.8 °C 28.4 °F /  -2.0 °C 30.2in /  1022.9hPa ENE 7.8mph /  12.6km/h 15.4mph /  24.8km/h 54% 0in /  0.0mm
15:03 42.4 °F /  5.8 °C 28.4 °F /  -2.0 °C 30.2in /  1022.9hPa NE 10.7mph /  17.2km/h 14.5mph /  23.3km/h 55% 0in /  0.0mm
15:08 42.6 °F /  5.9 °C 28.4 °F /  -2.0 °C 30.2in /  1022.9hPa NNE 11.4mph /  18.3km/h 14.5mph /  23.3km/h 57% 0in /  0.0mm
15:13 42.8 °F /  6.0 °C 28.4 °F /  -2.0 °C 30.2in /  1022.9hPa NNE 7.6mph /  12.2km/h 13mph /  20.9km/h 57% 0in /  0.0mm
15:18 42.8 °F /  6.0 °C 28.4 °F /  -2.0 °C 30.2in /  1022.9hPa NE 8.1mph /  13.0km/h 11.4mph /  18.3km/h 57% 0in /  0.0mm
15:23 43 °F /  6.1 °C 30.2 °F /  -1.0 °C 30.2in /  1022.9hPa NNE 7.8mph /  12.6km/h 9.8mph /  15.8km/h 58% 0in /  0.0mm
15:28 43 °F /  6.1 °C 30.2 °F /  -1.0 °C 30.2in /  1022.9hPa ENE 8.7mph /  14.0km/h 11mph /  17.7km/h 58% 0in /  0.0mm
15:33 43 °F /  6.1 °C 28.4 °F /  -2.0 °C 30.2in /  1022.9hPa NE 10.7mph /  17.2km/h 13mph /  20.9km/h 56% 0in /  0.0mm
15:38 42.8 °F /  6.0 °C 26.6 °F /  -3.0 °C 30.2in /  1022.9hPa NE 9.6mph /  15.4km/h 13.2mph /  21.2km/h 53% 0in /  0.0mm
15:43 42.8 °F /  6.0 °C 28.4 °F /  -2.0 °C 30.2in /  1022.9hPa NNE 10.3mph /  16.6km/h 13.2mph /  21.2km/h 54% 0in /  0.0mm
15:48 42.8 °F /  6.0 °C 26.6 °F /  -3.0 °C 30.2in /  1022.9hPa NE 10.1mph /  16.3km/h 15.4mph /  24.8km/h 53% 0in /  0.0mm
15:53 42.6 °F /  5.9 °C 26.6 °F /  -3.0 °C 30.2in /  1022.9hPa ENE 8.1mph /  13.0km/h 15.4mph /  24.8km/h 53% 0in /  0.0mm
15:58 42.6 °F /  5.9 °C 28.4 °F /  -2.0 °C 30.2in /  1022.9hPa NE 10.3mph /  16.6km/h 13mph /  20.9km/h 55% 0in /  0.0mm
16:03 42.6 °F /  5.9 °C 28.4 °F /  -2.0 °C 30.2in /  1022.9hPa NE 7.8mph /  12.6km/h 12.3mph /  19.8km/h 57% 0in /  0.0mm
16:08 42.8 °F /  6.0 °C 28.4 °F /  -2.0 °C 30.2in /  1022.9hPa NE 9.8mph /  15.8km/h 12.3mph /  19.8km/h 56% 0in /  0.0mm
16:13 42.6 °F /  5.9 °C 30.2 °F /  -1.0 °C 30.2in /  1022.9hPa NE 8.7mph /  14.0km/h 11mph /  17.7km/h 58% 0in /  0.0mm
16:19 42.4 °F /  5.8 °C 28.4 °F /  -2.0 °C 30.2in /  1022.9hPa NE 11.2mph /  18.0km/h 13mph /  20.9km/h 55% 0in /  0.0mm
16:24 42.3 °F /  5.7 °C 26.6 °F /  -3.0 °C 30.2in /  1022.9hPa NE 7.8mph /  12.6km/h 13mph /  20.9km/h 54% 0in /  0.0mm
16:29 42.3 °F /  5.7 °C 26.6 °F /  -3.0 °C 30.2in /  1022.9hPa NNE 9.8mph /  15.8km/h 12.8mph /  20.6km/h 55% 0in /  0.0mm
16:34 42.1 °F /  5.6 °C 26.6 °F /  -3.0 °C 30.2in /  1022.9hPa NE 7.6mph /  12.2km/h 12.5mph /  20.1km/h 55% 0in /  0.0mm
16:39 41.7 °F /  5.4 °C 26.6 °F /  -3.0 °C 30.2in /  1022.9hPa NE 7.8mph /  12.6km/h 12.8mph /  20.6km/h 53% 0in /  0.0mm
16:44 41.7 °F /  5.4 °C 26.6 °F /  -3.0 °C 30.2in /  1022.9hPa NE 7.8mph /  12.6km/h 12.8mph /  20.6km/h 54% 0in /  0.0mm
16:49 41.5 °F /  5.3 °C 26.6 °F /  -3.0 °C 30.2in /  1022.9hPa ENE 9.4mph /  15.1km/h 11mph /  17.7km/h 54% 0in /  0.0mm
16:54 41.5 °F /  5.3 °C 26.6 °F /  -3.0 °C 30.2in /  1022.9hPa NE 6.3mph /  10.1km/h 11.2mph /  18.0km/h 55% 0in /  0.0mm
16:59 41.4 °F /  5.2 °C 26.6 °F /  -3.0 °C 30.2in /  1022.9hPa NNE 7.8mph /  12.6km/h 11.2mph /  18.0km/h 56% 0in /  0.0mm
17:04 41.2 °F /  5.1 °C 26.6 °F /  -3.0 °C 30.2in /  1022.9hPa NE 9.6mph /  15.4km/h 12.3mph /  19.8km/h 57% 0in /  0.0mm
17:09 41 °F /  5.0 °C 28.4 °F /  -2.0 °C 30.2in /  1022.9hPa NNE 5.6mph /  9.0km/h 12.3mph /  19.8km/h 59% 0in /  0.0mm
17:14 40.8 °F /  4.9 °C 28.4 °F /  -2.0 °C 30.2in /  1022.9hPa NNE 8.5mph /  13.7km/h 10.5mph /  16.9km/h 61% 0in /  0.0mm
17:19 40.6 °F /  4.8 °C 28.4 °F /  -2.0 °C 30.2in /  1022.9hPa NE 8.7mph /  14.0km/h 10.5mph /  16.9km/h 61% 0in /  0.0mm
17:24 40.5 °F /  4.7 °C 28.4 °F /  -2.0 °C 30.2in /  1022.9hPa NE 7.8mph /  12.6km/h 10.5mph /  16.9km/h 61% 0in /  0.0mm
17:29 40.3 °F /  4.6 °C 28.4 °F /  -2.0 °C 30.2in /  1022.9hPa NE 8.9mph /  14.3km/h 10.3mph /  16.6km/h 61% 0in /  0.0mm
17:34 40.3 °F /  4.6 °C 28.4 °F /  -2.0 °C 30.2in /  1022.9hPa NNE 7.6mph /  12.2km/h 10.3mph /  16.6km/h 62% 0in /  0.0mm
17:39 39.9 °F /  4.4 °C 28.4 °F /  -2.0 °C 30.2in /  1022.9hPa NE 8.5mph /  13.7km/h 8.7mph /  14.0km/h 63% 0in /  0.0mm
17:44 39.6 °F /  4.2 °C 28.4 °F /  -2.0 °C 30.2in /  1022.9hPa NNE 7.4mph /  11.9km/h 8.9mph /  14.3km/h 64% 0in /  0.0mm
17:50 39.2 °F /  4.0 °C 28.4 °F /  -2.0 °C 30.2in /  1022.9hPa NNE 5.4mph /  8.7km/h 9.6mph /  15.4km/h 64% 0in /  0.0mm
17:55 38.8 °F /  3.8 °C 28.4 °F /  -2.0 °C 30.2in /  1022.9hPa NE 6mph /  9.7km/h 9.6mph /  15.4km/h 66% 0in /  0.0mm
18:00 38.7 °F /  3.7 °C 28.4 °F /  -2.0 °C 30.2in /  1022.9hPa NE 7.8mph /  12.6km/h 8.7mph /  14.0km/h 66% 0in /  0.0mm
18:05 38.3 °F /  3.5 °C 28.4 °F /  -2.0 °C 30.2in /  1022.9hPa NNE 2.9mph /  4.7km/h 8.1mph /  13.0km/h 67% 0in /  0.0mm
18:10 37.9 °F /  3.3 °C 28.4 °F /  -2.0 °C 30.2in /  1022.9hPa NNE 5.8mph /  9.3km/h 7.8mph /  12.6km/h 69% 0in /  0.0mm
18:15 37.6 °F /  3.1 °C 30.2 °F /  -1.0 °C 30.2in /  1022.9hPa NNE 6.3mph /  10.1km/h 7.6mph /  12.2km/h 71% 0in /  0.0mm
18:20 37.2 °F /  2.9 °C 30.2 °F /  -1.0 °C 30.2in /  1022.9hPa NE 6mph /  9.7km/h 7.6mph /  12.2km/h 72% 0in /  0.0mm
18:25 36.9 °F /  2.7 °C 30.2 °F /  -1.0 °C 30.2in /  1022.9hPa NE 5.4mph /  8.7km/h 7.8mph /  12.6km/h 73% 0in /  0.0mm
18:30 36.7 °F /  2.6 °C 30.2 °F /  -1.0 °C 30.2in /  1021.9hPa NNE 3.6mph /  5.8km/h 8.1mph /  13.0km/h 73% 0in /  0.0mm
18:35 36.5 °F /  2.5 °C 30.2 °F /  -1.0 °C 30.2in /  1021.9hPa NNW 6mph /  9.7km/h 8.1mph /  13.0km/h 74% 0in /  0.0mm
18:40 36.1 °F /  2.3 °C 30.2 °F /  -1.0 °C 30.2in /  1021.9hPa NNE 5.4mph /  8.7km/h 6.5mph /  10.5km/h 74% 0in /  0.0mm
18:45 36 °F /  2.2 °C 30.2 °F /  -1.0 °C 30.2in /  1022.9hPa NNE 5.8mph /  9.3km/h 7.4mph /  11.9km/h 75% 0in /  0.0mm
18:50 35.8 °F /  2.1 °C 30.2 °F /  -1.0 °C 30.2in /  1022.9hPa NE 4.9mph /  7.9km/h 8.1mph /  13.0km/h 76% 0in /  0.0mm
18:55 35.6 °F /  2.0 °C 30.2 °F /  -1.0 °C 30.2in /  1022.9hPa NE 3.4mph /  5.5km/h 8.1mph /  13.0km/h 76% 0in /  0.0mm
19:00 35.6 °F /  2.0 °C 30.2 °F /  -1.0 °C 30.2in /  1022.9hPa NNE 7.2mph /  11.6km/h 7.8mph /  12.6km/h 77% 0in /  0.0mm
19:05 35.4 °F /  1.9 °C 30.2 °F /  -1.0 °C 30.2in /  1022.9hPa North 3.6mph /  5.8km/h 8.1mph /  13.0km/h 78% 0in /  0.0mm
19:10 35.2 °F /  1.8 °C 28.4 °F /  -2.0 °C 30.2in /  1022.9hPa North 7.4mph /  11.9km/h 8.1mph /  13.0km/h 78% 0in /  0.0mm
19:15 35.1 °F /  1.7 °C 28.4 °F /  -2.0 °C 30.2in /  1022.9hPa NE 3.8mph /  6.1km/h 8.5mph /  13.7km/h 78% 0in /  0.0mm
19:20 35.1 °F /  1.7 °C 30.2 °F /  -1.0 °C 30.2in /  1022.9hPa NE 5.4mph /  8.7km/h 9.6mph /  15.4km/h 79% 0in /  0.0mm
19:25 35.1 °F /  1.7 °C 30.2 °F /  -1.0 °C 30.2in /  1022.9hPa NNE 7.8mph /  12.6km/h 9.6mph /  15.4km/h 79% 0in /  0.0mm
19:30 34.9 °F /  1.6 °C 30.2 °F /  -1.0 °C 30.2in /  1021.9hPa NNE 4.9mph /  7.9km/h 8.5mph /  13.7km/h 79% 0in /  0.0mm
19:35 34.9 °F /  1.6 °C 30.2 °F /  -1.0 °C 30.2in /  1021.9hPa ENE 2.9mph /  4.7km/h 7.8mph /  12.6km/h 79% 0in /  0.0mm
19:40 34.5 °F /  1.4 °C 28.4 °F /  -2.0 °C 30.2in /  1021.9hPa North 0.9mph /  1.4km/h 7.8mph /  12.6km/h 79% 0in /  0.0mm
19:45 34.2 °F /  1.2 °C 28.4 °F /  -2.0 °C 30.2in /  1022.9hPa NNE 3.4mph /  5.5km/h 6mph /  9.7km/h 79% 0in /  0.0mm
19:50 34.2 °F /  1.2 °C 30.2 °F /  -1.0 °C 30.2in /  1022.9hPa NNE 4.3mph /  6.9km/h 8.1mph /  13.0km/h 80% 0in /  0.0mm
19:55 34.3 °F /  1.3 °C 30.2 °F /  -1.0 °C 30.2in /  1022.9hPa NNE 5.4mph /  8.7km/h 8.1mph /  13.0km/h 82% 0in /  0.0mm
20:00 34.3 °F /  1.3 °C 30.2 °F /  -1.0 °C 30.2in /  1022.9hPa NE 7.4mph /  11.9km/h 7.8mph /  12.6km/h 83% 0in /  0.0mm
20:05 34.2 °F /  1.2 °C 30.2 °F /  -1.0 °C 30.2in /  1022.9hPa NE 5.8mph /  9.3km/h 7.6mph /  12.2km/h 84% 0in /  0.0mm
20:10 34.2 °F /  1.2 °C 30.2 °F /  -1.0 °C 30.2in /  1022.9hPa NE 4mph /  6.4km/h 7.6mph /  12.2km/h 84% 0in /  0.0mm
20:16 34 °F /  1.1 °C 30.2 °F /  -1.0 °C 30.2in /  1021.9hPa NNE 5.6mph /  9.0km/h 7.6mph /  12.2km/h 84% 0in /  0.0mm
20:21 34 °F /  1.1 °C 30.2 °F /  -1.0 °C 30.2in /  1021.9hPa NNE 5.8mph /  9.3km/h 7.6mph /  12.2km/h 85% 0in /  0.0mm
20:26 34 °F /  1.1 °C 30.2 °F /  -1.0 °C 30.2in /  1021.9hPa NE 3.4mph /  5.5km/h 7.6mph /  12.2km/h 85% 0in /  0.0mm
20:31 33.8 °F /  1.0 °C 30.2 °F /  -1.0 °C 30.2in /  1022.9hPa NE 5.4mph /  8.7km/h 7.8mph /  12.6km/h 85% 0in /  0.0mm
20:36 33.8 °F /  1.0 °C 30.2 °F /  -1.0 °C 30.2in /  1022.9hPa NNE 5.4mph /  8.7km/h 8.7mph /  14.0km/h 86% 0in /  0.0mm
20:41 33.8 °F /  1.0 °C 30.2 °F /  -1.0 °C 30.2in /  1022.9hPa NNE 4mph /  6.4km/h 8.7mph /  14.0km/h 86% 0in /  0.0mm
20:46 33.6 °F /  0.9 °C 30.2 °F /  -1.0 °C 30.2in /  1021.9hPa NE 5.8mph /  9.3km/h 7.4mph /  11.9km/h 87% 0in /  0.0mm
20:51 33.6 °F /  0.9 °C 30.2 °F /  -1.0 °C 30.2in /  1021.9hPa NE 6.5mph /  10.5km/h 7.4mph /  11.9km/h 87% 0in /  0.0mm
20:56 33.6 °F /  0.9 °C 30.2 °F /  -1.0 °C 30.2in /  1021.9hPa NNE 5.6mph /  9.0km/h 7.2mph /  11.6km/h 87% 0in /  0.0mm
21:01 33.4 °F /  0.8 °C 30.2 °F /  -1.0 °C 30.2in /  1022.9hPa NE 5.8mph /  9.3km/h 7.6mph /  12.2km/h 87% 0in /  0.0mm
21:06 33.4 °F /  0.8 °C 30.2 °F /  -1.0 °C 30.2in /  1022.9hPa NE 5.8mph /  9.3km/h 7.6mph /  12.2km/h 88% 0in /  0.0mm
21:11 33.4 °F /  0.8 °C 30.2 °F /  -1.0 °C 30.2in /  1022.9hPa NE 5.4mph /  8.7km/h 7.2mph /  11.6km/h 88% 0in /  0.0mm
21:16 33.6 °F /  0.9 °C 30.2 °F /  -1.0 °C 30.2in /  1023.9hPa NE 5.8mph /  9.3km/h 7.2mph /  11.6km/h 88% 0in /  0.0mm
21:21 33.6 °F /  0.9 °C 30.2 °F /  -1.0 °C 30.2in /  1023.9hPa NNE 5.8mph /  9.3km/h 7.8mph /  12.6km/h 88% 0in /  0.0mm
21:26 33.4 °F /  0.8 °C 30.2 °F /  -1.0 °C 30.2in /  1023.9hPa NNE 6.3mph /  10.1km/h 7.8mph /  12.6km/h 88% 0in /  0.0mm
21:31 33.4 °F /  0.8 °C 30.2 °F /  -1.0 °C 30.2in /  1022.9hPa North 3.8mph /  6.1km/h 8.1mph /  13.0km/h 88% 0in /  0.0mm
21:37 33.4 °F /  0.8 °C 30.2 °F /  -1.0 °C 30.2in /  1022.9hPa NE 4mph /  6.4km/h 8.1mph /  13.0km/h 88% 0in /  0.0mm
21:42 33.3 °F /  0.7 °C 30.2 °F /  -1.0 °C 30.2in /  1022.9hPa NNE 5.4mph /  8.7km/h 8.5mph /  13.7km/h 88% 0in /  0.0mm
21:47 33.3 °F /  0.7 °C 30.2 °F /  -1.0 °C 30.2in /  1022.9hPa NE 5.8mph /  9.3km/h 8.5mph /  13.7km/h 88% 0in /  0.0mm
21:52 33.3 °F /  0.7 °C 30.2 °F /  -1.0 °C 30.2in /  1022.9hPa NNE 4.9mph /  7.9km/h 8.1mph /  13.0km/h 89% 0in /  0.0mm
21:57 33.3 °F /  0.7 °C 30.2 °F /  -1.0 °C 30.2in /  1022.9hPa North 5.8mph /  9.3km/h 8.5mph /  13.7km/h 89% 0in /  0.0mm
22:02 33.1 °F /  0.6 °C 30.2 °F /  -1.0 °C 30.2in /  1021.9hPa NNE 5.8mph /  9.3km/h 8.5mph /  13.7km/h 89% 0in /  0.0mm
22:07 33.1 °F /  0.6 °C 30.2 °F /  -1.0 °C 30.2in /  1021.9hPa NE 4.9mph /  7.9km/h 8.5mph /  13.7km/h 89% 0in /  0.0mm
22:12 33.1 °F /  0.6 °C 30.2 °F /  -1.0 °C 30.2in /  1021.9hPa NNE 5.4mph /  8.7km/h 8.5mph /  13.7km/h 90% 0in /  0.0mm
22:17 33.1 °F /  0.6 °C 30.2 °F /  -1.0 °C 30.2in /  1022.9hPa North 4.7mph /  7.6km/h 7.2mph /  11.6km/h 90% 0in /  0.0mm
22:22 32.9 °F /  0.5 °C 30.2 °F /  -1.0 °C 30.2in /  1022.9hPa NNE 4.5mph /  7.2km/h 7.2mph /  11.6km/h 90% 0in /  0.0mm
22:27 32.7 °F /  0.4 °C 30.2 °F /  -1.0 °C 30.2in /  1022.9hPa NNE 7.6mph /  12.2km/h 7.6mph /  12.2km/h 90% 0in /  0.0mm
22:32 32.9 °F /  0.5 °C 30.2 °F /  -1.0 °C 30.2in /  1021.9hPa NNE 6mph /  9.7km/h 8.1mph /  13.0km/h 90% 0in /  0.0mm
22:38 32.9 °F /  0.5 °C 30.2 °F /  -1.0 °C 30.2in /  1021.9hPa NE 6mph /  9.7km/h 8.1mph /  13.0km/h 90% 0in /  0.0mm
22:43 32.9 °F /  0.5 °C 30.2 °F /  -1.0 °C 30.2in /  1021.9hPa NNE 6.7mph /  10.8km/h 7.8mph /  12.6km/h 90% 0in /  0.0mm
22:48 32.9 °F /  0.5 °C 30.2 °F /  -1.0 °C 30.2in /  1022.9hPa NNE 6.3mph /  10.1km/h 7.8mph /  12.6km/h 90% 0in /  0.0mm
22:53 32.9 °F /  0.5 °C 30.2 °F /  -1.0 °C 30.2in /  1022.9hPa NE 7.4mph /  11.9km/h 7.6mph /  12.2km/h 90% 0in /  0.0mm
22:58 32.7 °F /  0.4 °C 30.2 °F /  -1.0 °C 30.2in /  1022.9hPa NNE 4.9mph /  7.9km/h 7.6mph /  12.2km/h 90% 0in /  0.0mm
23:03 32.7 °F /  0.4 °C 30.2 °F /  -1.0 °C 30.2in /  1021.9hPa NNE 6mph /  9.7km/h 7.2mph /  11.6km/h 89% 0in /  0.0mm
23:08 32.7 °F /  0.4 °C 30.2 °F /  -1.0 °C 30.2in /  1021.9hPa NNE 5.4mph /  8.7km/h 7.4mph /  11.9km/h 90% 0in /  0.0mm
23:13 32.7 °F /  0.4 °C 30.2 °F /  -1.0 °C 30.2in /  1021.9hPa NNE 5.6mph /  9.0km/h 8.5mph /  13.7km/h 90% 0in /  0.0mm
23:18 32.5 °F /  0.3 °C 30.2 °F /  -1.0 °C 30.2in /  1022.9hPa NNE 5.6mph /  9.0km/h 8.5mph /  13.7km/h 90% 0in /  0.0mm
23:23 32.7 °F /  0.4 °C 30.2 °F /  -1.0 °C 30.2in /  1022.9hPa NE 5.6mph /  9.0km/h 8.5mph /  13.7km/h 90% 0in /  0.0mm
23:28 32.7 °F /  0.4 °C 30.2 °F /  -1.0 °C 30.2in /  1021.9hPa NE 6.3mph /  10.1km/h 8.5mph /  13.7km/h 90% 0in /  0.0mm
23:34 32.7 °F /  0.4 °C 30.2 °F /  -1.0 °C 30.2in /  1021.9hPa NNE 6.5mph /  10.5km/h 8.7mph /  14.0km/h 90% 0in /  0.0mm
23:39 32.7 °F /  0.4 °C 30.2 °F /  -1.0 °C 30.2in /  1021.9hPa NE 6.5mph /  10.5km/h 8.7mph /  14.0km/h 90% 0in /  0.0mm
23:44 32.9 °F /  0.5 °C 30.2 °F /  -1.0 °C 30.2in /  1022.9hPa NNE 5.8mph /  9.3km/h 8.7mph /  14.0km/h 89% 0in /  0.0mm
23:49 32.9 °F /  0.5 °C 30.2 °F /  -1.0 °C 30.2in /  1022.9hPa NNE 5.4mph /  8.7km/h 8.1mph /  13.0km/h 89% 0in /  0.0mm
23:54 32.9 °F /  0.5 °C 30.2 °F /  -1.0 °C 30.2in /  1022.9hPa NNE 8.1mph /  13.0km/h 8.7mph /  14.0km/h 89% 0in /  0.0mm
23:59 32.7 °F /  0.4 °C 30.2 °F /  -1.0 °C 30.2in /  1022.9hPa ENE 5.8mph /  9.3km/h 8.7mph /  14.0km/h 89% 0in /  0.0mm
Données Historique de Météo Turbie

Mise a jour : 18/06/2018 00:21:13
Généré par Cumulus 1.9.4 (1099)